Time;durP1;ratioP1;P1;durP2;ratioP2;P2;SDS_P1;SDS_P2;PMS_P1;PMS_P2;Temp;Humidity;BMP_temperature;BMP_pressure;BME280_temperature;BME280_humidity;BME280_pressure;Samples;Min_cycle;Max_cycle;Signal;HPM_P1;HPM_P2
2021/10/25 00:00:44;;;;;;;18.70;11.60;;;;;;;1.54;100.00;94409.63;4970643;28;20438;-78
2021/10/25 00:03:11;;;;;;;16.50;9.35;;;;;;;1.52;100.00;94411.47;4970627;28;20078;-78
2021/10/25 00:05:37;;;;;;;14.90;8.93;;;;;;;1.46;100.00;94415.31;4971805;28;20102;-78
2021/10/25 00:08:04;;;;;;;14.32;9.98;;;;;;;1.46;100.00;94406.91;4974547;28;20121;-78
2021/10/25 00:10:31;;;;;;;12.98;7.88;;;;;;;1.55;100.00;94408.69;4974398;28;20051;-78
2021/10/25 00:12:59;;;;;;;12.55;7.43;;;;;;;1.47;100.00;94400.91;4974507;28;20062;-78
2021/10/25 00:15:26;;;;;;;12.80;7.30;;;;;;;1.42;100.00;94398.75;4974426;28;20082;-78
2021/10/25 00:17:53;;;;;;;13.75;8.30;;;;;;;1.37;100.00;94400.84;4974288;28;20117;-78
2021/10/25 00:20:20;;;;;;;12.40;8.10;;;;;;;1.33;100.00;94395.25;4974326;28;20050;-77
2021/10/25 00:22:47;;;;;;;14.55;8.70;;;;;;;1.31;100.00;94397.06;4974111;28;20498;-77
2021/10/25 00:25:14;;;;;;;15.80;8.88;;;;;;;1.36;100.00;94399.25;4974004;28;20051;-78
2021/10/25 00:27:40;;;;;;;13.63;7.90;;;;;;;1.36;100.00;94406.84;4973832;28;20051;-78
2021/10/25 00:30:10;;;;;;;16.38;8.07;;;;;;;0.52;100.00;94281.88;4974101;28;20057;-78
2021/10/25 00:32:37;;;;;;;19.27;8.60;;;;;;;1.25;100.00;94410.22;4973794;28;20054;-78
2021/10/25 00:35:04;;;;;;;18.83;8.38;;;;;;;1.21;100.00;94413.94;4974076;28;20110;-78
2021/10/25 00:37:31;;;;;;;16.02;8.35;;;;;;;1.20;100.00;94405.53;4973524;28;20043;-78
2021/10/25 00:39:58;;;;;;;14.75;8.07;;;;;;;1.31;100.00;94409.72;4973952;28;20057;-78
2021/10/25 00:42:25;;;;;;;13.43;8.20;;;;;;;1.31;100.00;94404.66;4973934;28;20101;-78
2021/10/25 00:44:52;;;;;;;16.05;9.40;;;;;;;1.36;100.00;94404.31;4973376;28;20672;-78
2021/10/25 00:47:20;;;;;;;14.45;7.07;;;;;;;1.35;100.00;94395.13;4973630;28;20098;-78
2021/10/25 00:49:47;;;;;;;13.75;7.00;;;;;;;1.38;100.00;94392.31;4973579;28;20047;-78
2021/10/25 00:52:14;;;;;;;11.52;6.85;;;;;;;1.41;100.00;94403.94;4973361;28;20510;-78
2021/10/25 00:54:42;;;;;;;11.80;6.72;;;;;;;1.38;100.00;94399.13;4973360;28;20105;-78
2021/10/25 00:57:08;;;;;;;9.85;6.40;;;;;;;1.36;100.00;94394.19;4973715;28;20076;-78
2021/10/25 00:59:35;;;;;;;10.38;6.15;;;;;;;1.35;100.00;94390.06;4973615;28;20047;-78
2021/10/25 01:02:03;;;;;;;10.65;6.68;;;;;;;1.35;100.00;94392.59;4973555;28;20047;-78
2021/10/25 01:04:32;;;;;;;12.05;7.50;;;;;;;1.15;100.00;94382.31;4973248;28;20086;-78
2021/10/25 01:06:59;;;;;;;11.35;7.43;;;;;;;1.33;100.00;94395.25;4973537;28;20106;-78
2021/10/25 01:09:27;;;;;;;14.23;8.20;;;;;;;1.22;100.00;94394.47;4973357;28;20495;-78
2021/10/25 01:11:54;;;;;;;16.00;9.30;;;;;;;1.09;100.00;94387.06;4973237;28;20054;-78
2021/10/25 01:14:21;;;;;;;12.52;8.00;;;;;;;1.22;100.00;94402.88;4973223;28;20578;-77
2021/10/25 01:16:48;;;;;;;11.95;7.85;;;;;;;1.19;100.00;94393.00;4972881;28;20050;-78
2021/10/25 01:19:15;;;;;;;11.00;7.80;;;;;;;1.25;100.00;94395.03;4973296;28;20055;-77
2021/10/25 01:21:43;;;;;;;12.55;7.45;;;;;;;1.20;100.00;94395.41;4973419;28;20070;-77
2021/10/25 01:24:10;;;;;;;15.00;7.60;;;;;;;1.10;100.00;94398.81;4973370;28;20061;-78
2021/10/25 01:26:36;;;;;;;12.90;7.38;;;;;;;1.05;100.00;94397.44;4973812;28;20518;-78
2021/10/25 01:29:04;;;;;;;13.75;7.30;;;;;;;1.04;100.00;94400.09;4973860;28;20098;-78
2021/10/25 01:31:31;;;;;;;10.10;5.70;;;;;;;0.80;100.00;94363.94;4973019;28;20047;-78
2021/10/25 01:33:58;;;;;;;8.23;5.65;;;;;;;0.74;100.00;94363.63;4973038;28;20506;-77
2021/10/25 01:36:24;;;;;;;10.55;5.72;;;;;;;0.98;100.00;94403.09;4973402;28;20074;-78
2021/10/25 01:38:53;;;;;;;8.55;5.55;;;;;;;0.92;100.00;94401.84;4973338;28;20450;-78
2021/10/25 01:41:19;;;;;;;9.02;5.68;;;;;;;0.60;100.00;94352.84;4973000;28;20179;-78
2021/10/25 01:43:47;;;;;;;8.43;5.53;;;;;;;0.89;100.00;94397.03;4973141;28;20589;-78
2021/10/25 01:46:14;;;;;;;10.75;5.53;;;;;;;0.79;100.00;94395.22;4972545;28;20050;-78
2021/10/25 01:48:40;;;;;;;7.82;5.15;;;;;;;0.79;100.00;94395.22;4973213;28;20050;-78
2021/10/25 01:51:07;;;;;;;11.85;5.65;;;;;;;0.73;100.00;94397.41;4972749;28;20047;-78
2021/10/25 01:53:37;;;;;;;8.93;5.78;;;;;;;0.77;100.00;94392.00;4972591;28;20059;-78
2021/10/25 01:56:07;;;;;;;10.75;5.50;;;;;;;0.75;100.00;94396.38;4972670;28;20069;-78
2021/10/25 01:58:34;;;;;;;9.10;5.65;;;;;;;0.75;100.00;94398.13;4972496;28;20561;-78
2021/10/25 02:01:01;;;;;;;7.93;5.55;;;;;;;0.71;100.00;94377.31;4972652;28;20439;-78
2021/10/25 02:03:29;;;;;;;13.18;6.88;;;;;;;0.71;100.00;94396.75;4972453;28;20067;-78
2021/10/25 02:05:55;;;;;;;10.93;7.97;;;;;;;0.70;100.00;94395.13;4972221;28;20187;-78
2021/10/25 02:08:23;;;;;;;11.45;7.60;;;;;;;0.68;100.00;94400.31;4972559;28;20077;-78
2021/10/25 02:10:49;;;;;;;12.85;8.00;;;;;;;0.61;100.00;94396.66;4972237;28;20161;-78
2021/10/25 02:13:18;;;;;;;11.13;7.97;;;;;;;0.58;100.00;94379.19;4972117;28;20557;-78
2021/10/25 02:15:45;;;;;;;11.05;8.23;;;;;;;0.64;100.00;94386.28;4972272;28;20047;-78
2021/10/25 02:18:13;;;;;;;12.98;8.07;;;;;;;0.56;100.00;94371.75;4972109;28;20160;-78
2021/10/25 02:20:40;;;;;;;14.73;8.70;;;;;;;0.74;100.00;94386.41;4972172;28;20129;-78
2021/10/25 02:23:08;;;;;;;11.77;7.13;;;;;;;0.72;100.00;94390.75;4972127;28;20051;-78
2021/10/25 02:25:35;;;;;;;13.07;8.25;;;;;;;0.69;100.00;94396.84;4971637;28;20101;-78
2021/10/25 02:28:02;;;;;;;11.05;7.20;;;;;;;0.41;100.00;94357.75;4971978;28;20046;-78
2021/10/25 02:30:31;;;;;;;12.52;7.72;;;;;;;0.57;100.00;94380.13;4971191;28;20054;-78
2021/10/25 02:32:58;;;;;;;12.73;9.52;;;;;;;0.53;100.00;94382.06;4971641;28;20051;-78
2021/10/25 02:35:25;;;;;;;12.48;9.75;;;;;;;0.57;100.00;94392.75;4971938;28;20059;-78
2021/10/25 02:37:55;;;;;;;13.70;9.40;;;;;;;0.53;100.00;94399.78;4971437;28;20043;-78
2021/10/25 02:40:23;;;;;;;12.15;8.25;;;;;;;0.57;100.00;94397.81;4971804;28;20145;-78
2021/10/25 02:42:50;;;;;;;13.90;8.05;;;;;;;0.51;100.00;94383.94;4971771;28;20109;-78
2021/10/25 02:45:17;;;;;;;14.10;8.30;;;;;;;0.55;100.00;94404.72;4971427;28;20574;-78
2021/10/25 02:47:46;;;;;;;13.40;8.07;;;;;;;0.51;100.00;94392.31;4971256;28;20486;-78
2021/10/25 02:50:13;;;;;;;14.68;8.07;;;;;;;0.31;100.00;94362.69;4971424;28;20043;-78
2021/10/25 02:52:40;;;;;;;11.45;8.57;;;;;;;0.40;100.00;94374.63;4971534;28;20539;-78
2021/10/25 02:55:07;;;;;;;10.50;6.47;;;;;;;0.54;100.00;94388.75;4971761;28;20101;-79
2021/10/25 02:57:34;;;;;;;12.18;6.65;;;;;;;0.51;100.00;94389.78;4951949;28;20098;-79
2021/10/25 03:00:01;;;;;;;10.57;7.40;;;;;;;0.45;100.00;94387.72;4952323;28;20056;-79
2021/10/25 03:02:28;;;;;;;12.02;7.55;;;;;;;0.43;100.00;94392.09;4952346;28;20047;-79
2021/10/25 03:04:56;;;;;;;15.20;9.70;;;;;;;0.15;100.00;94343.69;4951800;29;20058;-79
2021/10/25 03:07:23;;;;;;;17.63;10.57;;;;;;;0.47;100.00;94388.41;4951783;29;20053;-79
2021/10/25 03:09:49;;;;;;;19.85;13.45;;;;;;;0.34;100.00;94355.69;4951732;29;20880;-80
2021/10/25 03:12:16;;;;;;;17.98;11.73;;;;;;;0.50;100.00;94383.13;4951955;29;20167;-80
2021/10/25 03:14:44;;;;;;;16.80;10.23;;;;;;;0.34;100.00;94358.22;4952092;29;20138;-80
2021/10/25 03:17:11;;;;;;;20.95;12.32;;;;;;;0.34;100.00;94367.53;4951495;29;20109;-80
2021/10/25 03:19:38;;;;;;;18.90;12.25;;;;;;;0.34;100.00;94363.28;4951945;29;20048;-80
2021/10/25 03:22:06;;;;;;;22.70;12.73;;;;;;;0.30;100.00;94368.66;4951995;29;20054;-80
2021/10/25 03:24:33;;;;;;;23.55;13.60;;;;;;;0.19;100.00;94359.41;4951787;29;20059;-80
2021/10/25 03:27:00;;;;;;;21.25;14.07;;;;;;;0.29;100.00;94367.88;4951582;29;20047;-79
2021/10/25 03:29:27;;;;;;;18.17;11.02;;;;;;;0.38;100.00;94394.97;4951877;29;20054;-80
2021/10/25 03:31:54;;;;;;;15.23;9.80;;;;;;;0.39;100.00;94396.59;4951393;29;20058;-79
2021/10/25 03:34:21;;;;;;;15.48;9.68;;;;;;;0.36;100.00;94386.72;4951585;29;20051;-80
2021/10/25 03:36:49;;;;;;;16.15;8.27;;;;;;;0.30;100.00;94381.31;4951460;29;20062;-80
2021/10/25 03:39:21;;;;;;;13.60;9.35;;;;;;;0.19;100.00;94384.66;4951518;28;20511;-80
2021/10/25 03:41:49;;;;;;;13.20;9.40;;;;;;;0.13;100.00;94383.41;4951689;29;20058;-80
2021/10/25 03:44:20;;;;;;;19.25;11.23;;;;;;;0.16;100.00;94389.94;4951509;28;20055;-79
2021/10/25 03:46:50;;;;;;;27.50;15.30;;;;;;;0.12;100.00;94375.03;4951504;29;20492;-80
2021/10/25 03:49:23;;;;;;;36.20;18.48;;;;;;;0.24;100.00;94388.44;4951848;29;20051;-79
2021/10/25 03:51:50;;;;;;;41.10;18.80;;;;;;;0.30;100.00;94382.13;4951565;28;20118;-79
2021/10/25 03:54:26;;;;;;;45.10;20.90;;;;;;;0.23;100.00;94366.63;4951091;29;20055;-79
2021/10/25 03:57:13;;;;;;;42.83;19.85;;;;;;;0.31;100.00;94377.84;4965251;28;20051;-79
2021/10/25 04:13:50;;;;;;;18.85;10.07;;;;;;;-0.12;100.00;94361.72;4970339;28;20102;-79
2021/10/25 04:27:23;;;;;;;20.48;13.45;;;;;;;-0.10;100.00;94380.88;4969946;28;20153;-79
2021/10/25 04:29:57;;;;;;;21.73;11.88;;;;;;;-0.23;100.00;94348.16;4970088;28;20891;-79
2021/10/25 04:32:24;;;;;;;36.17;16.25;;;;;;;-0.04;100.00;94384.69;4970364;28;20086;-79
2021/10/25 04:34:51;;;;;;;28.15;12.48;;;;;;;-0.09;100.00;94374.13;4970010;28;20510;-79
2021/10/25 04:37:18;;;;;;;20.27;9.90;;;;;;;-0.14;100.00;94377.78;4970029;28;20105;-79
2021/10/25 04:39:44;;;;;;;20.83;10.60;;;;;;;-0.18;100.00;94371.34;4970097;28;20058;-79
2021/10/25 04:42:14;;;;;;;19.45;10.70;;;;;;;-0.13;100.00;94381.13;4969876;28;20051;-79
2021/10/25 04:44:42;;;;;;;17.15;11.00;;;;;;;-0.07;100.00;94375.63;4969914;28;20054;-79
2021/10/25 04:47:09;;;;;;;15.93;10.52;;;;;;;-0.01;100.00;94387.78;4970189;28;20058;-79
2021/10/25 04:49:36;;;;;;;13.10;8.60;;;;;;;-0.01;100.00;94387.78;4969939;28;20495;-79
2021/10/25 04:52:04;;;;;;;14.02;10.18;;;;;;;-0.04;100.00;94390.53;4970145;28;20046;-79
2021/10/25 04:54:31;;;;;;;17.38;8.77;;;;;;;-0.12;100.00;94387.78;4973499;28;20361;-79
2021/10/25 04:56:59;;;;;;;14.43;8.30;;;;;;;-0.19;100.00;94382.38;4973689;28;20142;-79
2021/10/25 04:59:25;;;;;;;16.52;9.80;;;;;;;-0.27;100.00;94374.56;4973350;28;20050;-79
2021/10/25 05:01:54;;;;;;;12.40;7.72;;;;;;;-0.20;100.00;94390.06;4973196;28;20055;-79
2021/10/25 05:04:21;;;;;;;13.13;7.57;;;;;;;-0.25;100.00;94390.41;4973630;28;20051;-78
2021/10/25 05:06:48;;;;;;;11.07;6.63;;;;;;;-0.20;100.00;94393.41;4973418;28;20086;-79
2021/10/25 05:09:15;;;;;;;11.05;7.78;;;;;;;-0.13;100.00;94398.81;4973316;28;20134;-78
2021/10/25 05:11:42;;;;;;;12.82;7.75;;;;;;;-0.11;100.00;94407.06;4955844;28;20047;-78
2021/10/25 05:14:09;;;;;;;13.85;11.00;;;;;;;-0.17;100.00;94407.53;4954082;28;20047;-78
2021/10/25 05:16:36;;;;;;;15.05;8.57;;;;;;;-0.28;100.00;94404.06;4958198;28;20513;-78
2021/10/25 05:19:04;;;;;;;29.83;15.57;;;;;;;-0.30;100.00;94410.16;4972954;28;20050;-78
2021/10/25 05:21:31;;;;;;;22.30;11.48;;;;;;;-0.38;100.00;94403.13;4973115;28;21568;-78
2021/10/25 05:23:58;;;;;;;21.27;11.52;;;;;;;-0.17;100.00;94415.09;4972892;28;20510;-78
2021/10/25 05:26:25;;;;;;;21.48;11.48;;;;;;;-0.17;100.00;94420.16;4972898;28;20058;-78
2021/10/25 05:28:52;;;;;;;25.45;15.30;;;;;;;-0.30;100.00;94405.09;4963673;28;20051;-79
2021/10/25 05:31:19;;;;;;;181.63;62.22;;;;;;;-0.23;100.00;94403.72;4953699;28;20061;-79
2021/10/25 05:33:45;;;;;;;136.02;52.70;;;;;;;-0.13;100.00;94413.97;4953456;28;20047;-79
2021/10/25 05:36:14;;;;;;;91.95;40.78;;;;;;;-0.14;100.00;94415.66;4953536;28;20478;-79
2021/10/25 05:38:41;;;;;;;78.35;37.38;;;;;;;-0.23;100.00;94423.91;4953313;28;20109;-79
2021/10/25 05:41:09;;;;;;;82.75;40.75;;;;;;;-0.16;100.00;94427.63;4953610;28;20078;-79
2021/10/25 05:43:36;;;;;;;83.10;40.13;;;;;;;-0.05;100.00;94434.38;4953561;28;20047;-78
2021/10/25 05:46:03;;;;;;;95.25;47.35;;;;;;;-0.11;100.00;94417.16;4953514;28;20047;-79
2021/10/25 05:48:30;;;;;;;69.97;35.78;;;;;;;-0.12;100.00;94409.69;4953061;28;20118;-79
2021/10/25 05:50:57;;;;;;;53.15;33.03;;;;;;;-0.04;100.00;94427.63;4971916;28;20542;-79
2021/10/25 05:53:25;;;;;;;55.22;34.63;;;;;;;-0.10;100.00;94416.25;4972266;28;20066;-79
2021/10/25 05:55:53;;;;;;;49.88;30.13;;;;;;;0.12;100.00;94433.16;4972186;28;20491;-79
2021/10/25 05:58:21;;;;;;;51.30;33.17;;;;;;;0.12;100.00;94423.03;4972503;28;20047;-79
2021/10/25 06:00:52;;;;;;;56.17;33.30;;;;;;;0.30;100.00;94430.16;4972538;28;20057;-79
2021/10/25 06:03:22;;;;;;;47.03;31.05;;;;;;;0.32;100.00;94418.19;4971999;28;20050;-79
2021/10/25 06:05:49;;;;;;;61.53;38.50;;;;;;;0.52;100.00;94441.16;4972125;28;20051;-78
2021/10/25 06:08:18;;;;;;;103.38;60.45;;;;;;;0.60;100.00;94445.63;4972231;28;20059;-79
2021/10/25 06:10:47;;;;;;;60.25;37.70;;;;;;;0.69;100.00;94449.97;4972384;28;20055;-79
2021/10/25 06:13:21;;;;;;;53.15;35.35;;;;;;;0.82;100.00;94449.03;4972188;28;20418;-79
2021/10/25 06:15:56;;;;;;;43.35;29.38;;;;;;;0.95;100.00;94453.94;4971885;28;20495;-79
2021/10/25 06:18:23;;;;;;;40.08;25.75;;;;;;;1.04;100.00;94454.03;4972162;28;20051;-79
2021/10/25 06:20:50;;;;;;;31.88;21.23;;;;;;;1.15;100.00;94462.53;4972214;28;20043;-79
2021/10/25 06:23:18;;;;;;;30.92;20.65;;;;;;;1.23;100.00;94460.16;4972072;28;20055;-79
2021/10/25 06:25:51;;;;;;;19.80;12.90;;;;;;;1.21;100.00;94462.03;4972036;28;20055;-79
2021/10/25 06:28:18;;;;;;;20.10;11.68;;;;;;;1.27;100.00;94464.06;4972137;28;20499;-80
2021/10/25 06:30:53;;;;;;;22.92;13.90;;;;;;;0.45;100.00;94332.09;4972255;28;20050;-79
2021/10/25 06:33:21;;;;;;;20.42;11.93;;;;;;;1.43;100.00;94457.81;4972219;28;20055;-79
2021/10/25 06:35:56;;;;;;;22.17;14.02;;;;;;;1.44;100.00;94455.13;4971973;28;20046;-79
2021/10/25 06:38:25;;;;;;;23.67;15.30;;;;;;;1.51;100.00;94460.50;4971933;28;20113;-79
2021/10/25 06:40:53;;;;;;;21.40;13.65;;;;;;;1.63;100.00;94466.34;4971253;28;20054;-80
2021/10/25 06:43:20;;;;;;;22.92;14.25;;;;;;;1.63;100.00;94438.47;4971800;28;20051;-80
2021/10/25 06:45:48;;;;;;;19.48;12.45;;;;;;;1.79;100.00;94467.63;4969272;28;20050;-79
2021/10/25 06:48:15;;;;;;;17.90;12.85;;;;;;;1.94;100.00;94470.66;4971434;28;20058;-80
2021/10/25 06:50:41;;;;;;;19.30;13.10;;;;;;;2.13;100.00;94475.81;4971544;28;20055;-79
2021/10/25 06:53:09;;;;;;;24.27;13.57;;;;;;;2.28;100.00;94465.34;4971304;28;20051;-80
2021/10/25 06:55:36;;;;;;;19.33;12.63;;;;;;;2.24;100.00;94446.25;4971370;28;20063;-79
2021/10/25 06:58:04;;;;;;;22.27;15.45;;;;;;;2.50;100.00;94468.63;4971229;28;20115;-80
2021/10/25 07:00:31;;;;;;;20.45;12.95;;;;;;;2.55;100.00;94476.66;4971412;28;20073;-80
2021/10/25 07:02:58;;;;;;;18.58;12.13;;;;;;;2.69;100.00;94482.31;4971130;28;20050;-80
2021/10/25 07:05:26;;;;;;;18.35;12.75;;;;;;;2.75;100.00;94480.06;4971114;28;20810;-81
2021/10/25 07:07:53;;;;;;;18.25;12.23;;;;;;;2.86;100.00;94473.28;4971088;28;20054;-81
2021/10/25 07:10:20;;;;;;;16.73;10.73;;;;;;;2.96;100.00;94466.44;4971228;28;20059;-81
2021/10/25 07:12:48;;;;;;;17.45;10.40;;;;;;;3.04;100.00;94468.34;4970989;28;20050;-82
2021/10/25 07:15:18;;;;;;;17.77;11.45;;;;;;;3.12;100.00;94472.75;4970740;28;20057;-81
2021/10/25 07:17:51;;;;;;;16.23;10.73;;;;;;;3.10;100.00;94464.50;4970973;28;20137;-81
2021/10/25 07:20:43;;;;;;;19.33;11.10;;;;;;;3.15;100.00;94464.91;4970744;28;20060;-81
2021/10/25 08:07:38;;;;;;;17.10;9.63;;;;;;;4.98;100.00;94416.41;4956817;28;20529;-79
2021/10/25 08:10:10;;;;;;;22.38;10.43;;;;;;;5.31;100.00;94424.34;4970135;28;20065;-79
2021/10/25 08:12:44;;;;;;;20.20;10.57;;;;;;;5.52;100.00;94415.59;4970162;28;20061;-79
2021/10/25 08:15:17;;;;;;;22.42;12.15;;;;;;;5.83;100.00;94431.25;4970337;28;20070;-79
2021/10/25 08:17:47;;;;;;;13.23;7.78;;;;;;;5.92;99.32;94437.22;4970376;28;20051;-79
2021/10/25 08:20:15;;;;;;;12.25;7.35;;;;;;;5.86;98.42;94443.72;4969915;28;20046;-79
2021/10/25 08:22:42;;;;;;;11.38;6.85;;;;;;;5.97;96.97;94441.88;4970504;28;20066;-78
2021/10/25 08:25:10;;;;;;;11.73;7.82;;;;;;;6.13;96.56;94441.19;4970396;28;20154;-78
2021/10/25 08:27:37;;;;;;;12.07;8.13;;;;;;;6.14;96.73;94435.94;4971209;28;20046;-78
2021/10/25 08:30:05;;;;;;;14.85;7.72;;;;;;;6.23;97.18;94425.78;4974088;28;20443;-78
2021/10/25 08:32:45;;;;;;;11.95;7.80;;;;;;;6.44;97.25;94417.75;4973733;28;20050;-78
2021/10/25 08:40:42;;;;;;;;;;;;;;;7.13;93.72;94426.22;4974138;28;20066;-79
2021/10/25 08:43:10;;;;;;;10.70;6.03;;;;;;;7.14;91.12;94417.59;4973892;28;19922;-79
2021/10/25 08:45:38;;;;;;;9.32;6.53;;;;;;;7.25;91.12;94421.56;4972966;28;20046;-79
2021/10/25 08:48:07;;;;;;;10.98;7.63;;;;;;;7.30;92.42;94419.34;4971558;28;20446;-78
2021/10/25 08:50:35;;;;;;;10.85;7.13;;;;;;;7.26;90.34;94408.66;4971715;28;20462;-79
2021/10/25 08:53:05;;;;;;;10.98;7.65;;;;;;;7.47;88.40;94412.50;4973311;28;20058;-78
2021/10/25 08:55:32;;;;;;;11.68;7.50;;;;;;;7.53;89.09;94413.59;4972896;28;20087;-78
2021/10/25 08:57:59;;;;;;;11.80;7.47;;;;;;;7.36;89.54;94421.25;4973353;28;20106;-79
2021/10/25 09:00:37;;;;;;;12.88;7.10;;;;;;;7.43;89.83;94400.97;4973332;28;20051;-79
2021/10/25 09:03:05;;;;;;;13.65;7.88;;;;;;;7.58;89.91;94394.28;4973451;28;20055;-79
2021/10/25 09:05:33;;;;;;;14.98;6.90;;;;;;;7.98;90.06;94406.34;4972368;28;20043;-79
2021/10/25 09:08:03;;;;;;;11.75;6.75;;;;;;;8.22;87.75;94410.63;4972491;28;20130;-79
2021/10/25 09:10:33;;;;;;;10.43;5.70;;;;;;;8.41;84.43;94406.06;4972747;28;20057;-79
2021/10/25 09:13:02;;;;;;;12.20;6.78;;;;;;;8.64;87.22;94398.47;4972763;28;20513;-79
2021/10/25 09:15:31;;;;;;;10.82;6.55;;;;;;;8.86;87.60;94401.25;4971581;28;20061;-79
2021/10/25 09:17:59;;;;;;;11.02;5.97;;;;;;;9.09;82.98;94406.38;4968541;28;20047;-79
2021/10/25 09:20:26;;;;;;;9.52;4.82;;;;;;;9.06;80.17;94391.34;4970609;28;20047;-79
2021/10/25 09:23:10;;;;;;;6.45;4.35;;;;;;;8.86;77.89;94405.56;4969573;28;20532;-80
2021/10/25 09:25:39;;;;;;;6.18;4.13;;;;;;;8.54;75.87;94392.75;4970548;28;20473;-79
2021/10/25 09:28:20;;;;;;;6.50;4.85;;;;;;;8.59;77.31;94397.38;4971043;28;20070;-79
2021/10/25 09:30:49;;;;;;;7.50;4.68;;;;;;;8.52;77.29;94369.88;4968464;28;20058;-79
2021/10/25 09:33:21;;;;;;;6.93;4.97;;;;;;;8.79;79.03;94385.75;4970645;28;20129;-80
2021/10/25 09:35:55;;;;;;;7.65;4.70;;;;;;;9.02;77.83;94384.19;4968031;28;20047;-79
2021/10/25 09:38:29;;;;;;;7.28;5.00;;;;;;;9.11;73.81;94395.16;4969484;28;20050;-79
2021/10/25 09:41:40;;;;;;;10.45;5.32;;;;;;;9.36;75.69;94380.41;4968043;28;20055;-79
2021/10/25 09:49:44;;;;;;;10.52;6.53;;;;;;;10.20;76.18;94375.25;4972493;28;20574;-79
2021/10/25 09:52:11;;;;;;;8.13;4.95;;;;;;;10.41;76.87;94367.63;4971984;28;20173;-79
2021/10/25 09:54:37;;;;;;;8.75;5.47;;;;;;;10.65;73.96;94367.53;4969248;28;20043;-79
2021/10/25 09:57:10;;;;;;;10.48;6.00;;;;;;;10.85;75.64;94360.03;4971658;28;20089;-79
2021/10/25 09:59:49;;;;;;;9.40;5.35;;;;;;;11.00;75.25;94356.59;4972207;28;20047;-79
2021/10/25 10:02:17;;;;;;;9.18;5.28;;;;;;;10.98;72.06;94350.84;4971248;28;20065;-79
2021/10/25 10:04:46;;;;;;;10.55;4.28;;;;;;;11.17;72.82;94352.00;4976969;28;20073;-79
2021/10/25 10:07:16;;;;;;;7.85;4.30;;;;;;;11.36;70.43;94340.31;4977811;28;20086;-79
2021/10/25 10:09:44;;;;;;;10.40;4.97;;;;;;;11.49;70.21;94331.88;4977496;28;20514;-80
2021/10/25 10:12:17;;;;;;;6.53;4.32;;;;;;;11.68;71.82;94334.78;4977665;28;20108;-80
2021/10/25 10:14:44;;;;;;;8.45;4.85;;;;;;;11.22;64.54;94339.41;4977606;28;20061;-81
2021/10/25 10:17:13;;;;;;;6.45;3.95;;;;;;;11.21;65.58;94304.38;4977324;28;20483;-80
2021/10/25 10:19:42;;;;;;;7.30;4.40;;;;;;;11.60;68.65;94323.66;4977698;28;20039;-80
2021/10/25 10:22:09;;;;;;;7.57;4.40;;;;;;;11.77;68.01;94313.84;4977734;28;20049;-80
2021/10/25 10:24:37;;;;;;;12.00;4.47;;;;;;;11.85;68.59;94317.28;4977137;28;20054;-80
2021/10/25 10:27:08;;;;;;;8.60;4.30;;;;;;;11.93;69.93;94311.16;4977278;28;20061;-80
2021/10/25 10:29:41;;;;;;;7.72;4.00;;;;;;;12.03;68.39;94307.25;4956783;28;20141;-80
2021/10/25 10:32:15;;;;;;;7.43;4.03;;;;;;;11.91;63.78;94290.75;4976423;28;20058;-80
2021/10/25 10:34:44;;;;;;;7.75;4.13;;;;;;;11.54;60.92;94306.41;4977173;28;20050;-80
2021/10/25 10:37:22;;;;;;;6.93;4.03;;;;;;;11.72;64.68;94297.38;4977098;28;20051;-81
2021/10/25 10:40:00;;;;;;;8.18;4.43;;;;;;;11.58;62.16;94287.00;4977334;28;20047;-81
2021/10/25 10:42:29;;;;;;;6.90;4.22;;;;;;;11.68;70.15;94257.56;4977193;28;20134;-80
2021/10/25 10:45:00;;;;;;;7.57;4.15;;;;;;;12.10;69.25;94276.41;4976761;28;20043;-81
2021/10/25 10:47:28;;;;;;;23.23;9.73;;;;;;;12.22;60.07;94283.59;4974023;28;20054;-81
2021/10/25 10:49:57;;;;;;;10.32;6.00;;;;;;;12.34;62.32;94287.19;4973988;28;20206;-81
2021/10/25 10:52:30;;;;;;;8.82;4.53;;;;;;;12.00;59.37;94273.38;4976748;28;20051;-81
2021/10/25 10:55:00;;;;;;;9.25;4.40;;;;;;;12.09;64.29;94276.59;4977489;28;20058;-81
2021/10/25 10:57:48;;;;;;;8.25;4.10;;;;;;;12.33;63.90;94274.50;4977148;28;20058;-81
2021/10/25 11:00:23;;;;;;;7.18;3.65;;;;;;;12.13;63.55;94263.13;4976798;28;20507;-81
2021/10/25 11:02:52;;;;;;;11.40;5.05;;;;;;;12.01;60.38;94264.66;4976644;28;20537;-81
2021/10/25 11:05:31;;;;;;;7.43;4.05;;;;;;;12.07;63.25;94261.34;4976809;28;20050;-79
2021/10/25 11:08:07;;;;;;;6.38;4.03;;;;;;;12.10;62.85;94260.16;4976707;28;20055;-80
2021/10/25 11:10:35;;;;;;;6.57;3.92;;;;;;;12.10;65.05;94263.53;4976391;28;20050;-79
2021/10/25 11:13:07;;;;;;;9.60;3.95;;;;;;;11.92;60.00;94248.56;4976688;28;20054;-79
2021/10/25 11:15:41;;;;;;;7.95;4.10;;;;;;;12.06;64.58;94254.59;4976468;28;20054;-80
2021/10/25 11:18:08;;;;;;;7.32;4.15;;;;;;;11.92;59.46;94250.34;4977321;28;20053;-80
2021/10/25 11:20:36;;;;;;;5.50;3.95;;;;;;;12.01;58.80;94244.03;4977833;28;20502;-80
2021/10/25 11:23:05;;;;;;;6.65;3.67;;;;;;;11.58;58.89;94245.81;4976054;28;20194;-79
2021/10/25 11:25:42;;;;;;;6.88;4.30;;;;;;;11.59;60.70;94224.28;4976434;28;20086;-81
2021/10/25 11:28:20;;;;;;;6.40;3.65;;;;;;;11.65;60.63;94232.19;4976232;28;20451;-80
2021/10/25 11:30:49;;;;;;;7.30;3.80;;;;;;;11.80;63.91;94232.88;4976417;28;20591;-80
2021/10/25 11:33:19;;;;;;;7.47;4.10;;;;;;;11.59;60.02;94224.28;4976479;28;20039;-80
2021/10/25 11:35:48;;;;;;;9.02;3.90;;;;;;;11.19;60.68;94229.97;4976269;28;20043;-80
2021/10/25 11:38:16;;;;;;;6.55;3.50;;;;;;;11.15;60.12;94189.41;4976251;28;20043;-81
2021/10/25 11:40:43;;;;;;;8.68;3.30;;;;;;;11.42;59.67;94208.34;4976305;28;20061;-81
2021/10/25 11:43:10;;;;;;;8.13;3.22;;;;;;;11.66;59.81;94214.00;4971645;28;20046;-80
2021/10/25 11:45:37;;;;;;;7.05;3.70;;;;;;;11.47;57.91;94195.72;4974099;28;20558;-79
2021/10/25 11:48:06;;;;;;;6.70;3.20;;;;;;;11.23;58.94;94213.19;4976177;28;20085;-79
2021/10/25 11:50:33;;;;;;;6.70;4.28;;;;;;;11.52;65.37;94192.56;4975899;28;20043;-79
2021/10/25 11:53:04;;;;;;;6.57;3.90;;;;;;;11.72;61.00;94202.16;4976047;28;20059;-79
2021/10/25 11:55:32;;;;;;;4.60;2.78;;;;;;;11.89;61.28;94192.31;4975973;28;20058;-78
2021/10/25 11:58:01;;;;;;;5.43;3.40;;;;;;;11.93;63.59;94175.50;4975882;28;20058;-79
2021/10/25 12:00:30;;;;;;;4.55;3.15;;;;;;;12.24;63.15;94181.13;4975846;28;20054;-78
2021/10/25 12:02:57;;;;;;;5.78;3.20;;;;;;;12.43;57.34;94193.28;4979058;28;20045;-78
2021/10/25 12:05:26;;;;;;;7.22;4.40;;;;;;;12.67;63.68;94190.28;4980302;28;20109;-78
2021/10/25 12:07:55;;;;;;;8.52;3.47;;;;;;;12.88;65.73;94185.94;4979510;28;20097;-79
2021/10/25 12:10:24;;;;;;;7.57;3.53;;;;;;;12.80;58.88;94172.25;4979955;28;20534;-79
2021/10/25 12:12:52;;;;;;;7.18;4.90;;;;;;;13.05;60.86;94186.34;4979404;28;20046;-79
2021/10/25 12:15:23;;;;;;;7.80;4.65;;;;;;;13.08;60.17;94181.56;4979448;28;20061;-79
2021/10/25 12:17:50;;;;;;;6.43;3.38;;;;;;;13.19;58.93;94187.09;4979561;28;20061;-79
2021/10/25 12:20:23;;;;;;;6.85;3.65;;;;;;;13.28;59.41;94185.09;4979540;28;20104;-79
2021/10/25 12:22:59;;;;;;;6.90;3.55;;;;;;;13.25;63.51;94154.53;4979401;28;20062;-80
2021/10/25 12:25:26;;;;;;;5.72;3.35;;;;;;;13.41;59.83;94166.19;4979545;28;20046;-79
2021/10/25 12:27:58;;;;;;;7.13;5.13;;;;;;;13.53;59.70;94166.38;4979147;28;20943;-80
2021/10/25 12:30:25;;;;;;;5.95;3.80;;;;;;;13.52;55.01;94159.66;4979302;28;20121;-79
2021/10/25 12:32:53;;;;;;;5.43;3.28;;;;;;;13.43;58.69;94161.63;4979066;28;20050;-79
2021/10/25 12:35:30;;;;;;;6.00;3.50;;;;;;;13.42;57.73;94162.63;4979296;28;20528;-79
2021/10/25 12:38:00;;;;;;;6.43;3.28;;;;;;;13.49;56.03;94166.00;4979234;28;20046;-80
2021/10/25 12:40:28;;;;;;;6.03;3.45;;;;;;;13.56;57.22;94169.34;4979152;28;20580;-79
2021/10/25 12:43:02;;;;;;;4.85;3.00;;;;;;;13.17;53.10;94160.69;4979645;28;20039;-80
2021/10/25 12:45:34;;;;;;;5.30;2.55;;;;;;;12.74;54.44;94154.22;4979018;28;20042;-80
2021/10/25 12:48:01;;;;;;;7.32;3.72;;;;;;;12.80;57.68;94149.06;4979433;28;20046;-79
2021/10/25 12:50:32;;;;;;;5.60;2.28;;;;;;;12.68;55.33;94153.22;4978958;28;20054;-79
2021/10/25 12:53:06;;;;;;;5.45;2.60;;;;;;;12.59;55.19;94152.63;4978834;28;20065;-80